Terminal Aerodrome Forecast
Issued by NWS

Home | Current Version | Previous Version | Text Only | Print | Product List | Glossary On
Versions: 1 2 3 4 5 6 7 8 9 10 11 12 13 14 15 16 17 18 19 20 21
881
FTUS46 KSEW 280941 AAB
TAFBLI
TAF AMD
KBLI 280941Z 2810/2906 15015G23KT P6SM VCSH SCT022 OVC060
      TEMPO 2810/2812 -RA BKN022 OVC050
     FM281200 15015G23KT 6SM -RA BR SCT007 OVC020
      TEMPO 2812/2816 4SM -RA BR
     FM281800 15018G28KT P6SM -RA BKN028 OVC050=

USA.gov is the U.S. government's official web portal to all federal, state and local government web resources and services.